Angus, MN

5:39 PM CST on December 20, 2014 (GMT -0600)
KNDGRAND8 | Change Station
CLOSE
Current Station
Personal Weather Station
Location: Grand Forks, ND
Elevation: 830 ft
Nearby Weather Stations
Active Advisory: Special Statement

Elev 830 ft 47.94 °N, 97.06 °W | Updated 7 seconds ago

Overcast
Overcast
30.2 °F
Feels Like 19 °F
N
15.2
Wind Variable Wind from SSW
Gusts 15.2 mph

Today
High -- | Low -- °F
--% Chance of Precip.
Yesterday
High -- | Low -- °F
Precip. -- in
8:14 AM 4:35 PM
Waning Crescent, 2% visible
Pressure 29.97 in
Visibility 3.0 miles
Clouds Overcast 400 ft
Windchill 19 °F
Dew Point 31 °F
Humidity 98%
Rainfall 0.00 in
Snow Depth Not available.
UV 0 out of 12
Pollen .10 out of 12
Air Quality Not available.
Flu Activity Not available.
METAR KGFK 202253Z 17010KT 3SM BR OVC004 M02/M03 A2993 RMK AO2 SFC VIS 4 SLP147 T10221028 $

More Conditions Fewer Conditions

Pressure 29.97 in
Visibility 3.0 miles
Clouds Overcast 400 ft
Windchill 19 °F
Dew Point 31 °F
Humidity 98%
Rainfall 0.00 in
Snow Depth Not available.
UV 0 out of 12
Pollen .10 out of 12
Air Quality Not available.
Flu Activity Not available.
METAR KGFK 202253Z 17010KT 3SM BR OVC004 M02/M03 A2993 RMK AO2 SFC VIS 4 SLP147 T10221028 $

More Conditions Fewer Conditions

10-Day Weather Forecast

Almanac

Astronomy

Dec. 20, 2014 Rise Set
Actual Time
Civil Twilight
Nautical Twilight
Astronomical Twilight
Moon
Length of Visible Light
Length of Day
Tomorrow will be .
, % of the Moon is Illuminated

Today's Extremes

State Highs State Lows

Community

WunderPhotos

Upload Photos

1,779,319 photos uploaded!

WunderBlogs® & News

Nearby

Air Quality

  Air Quality AQ Index Pollutant
Not available.

Snow Depth

Station Depth Elevation

Earthquake Activity

City Distance Mag. Time & Date
Minimum magnitude displayed is 2.5.

Coastal Water Temperatures

Place Temperature

Nearby Weather Stations